Time;durP1;ratioP1;P1;durP2;ratioP2;P2;SDS_P1;SDS_P2;PMS_P1;PMS_P2;Temp;Humidity;BMP_temperature;BMP_pressure;BME280_temperature;BME280_humidity;BME280_pressure;Samples;Min_cycle;Max_cycle;Signal;HPM_P1;HPM_P2
2022/06/03 00:01:54;;;;;;;10.23;9.20;;;;;;;;;;5082258;28;20414;-83
2022/06/03 00:04:39;;;;;;;11.20;9.93;;;;;;;;;;5098918;28;20408;-83
2022/06/03 00:07:11;;;;;;;11.37;9.40;;;;;;;;;;5099154;28;20392;-83
2022/06/03 00:09:49;;;;;;;9.87;8.87;;;;;;;;;;5099737;28;20500;-82
2022/06/03 00:12:23;;;;;;;10.67;9.57;;;;;;;;;;5081396;28;20456;-84
2022/06/03 00:15:08;;;;;;;13.40;9.23;;;;;;;;;;5099078;28;20431;-82
2022/06/03 00:17:49;;;;;;;11.70;9.00;;;;;;;;;;5099365;28;20380;-82
2022/06/03 00:20:25;;;;;;;10.03;9.10;;;;;;;;;;5081781;28;20484;-82
2022/06/03 00:23:06;;;;;;;9.53;8.67;;;;;;;;;;5082117;28;20904;-84
2022/06/03 00:25:52;;;;;;;8.90;7.90;;;;;;;;;;5082103;28;20451;-84
2022/06/03 00:28:28;;;;;;;9.97;8.97;;;;;;;;;;5100354;28;20397;-85
2022/06/03 00:31:01;;;;;;;10.80;9.80;;;;;;;;;;5098892;28;20419;-83
2022/06/03 00:33:46;;;;;;;14.37;9.47;;;;;;;;;;5100721;28;20404;-84
2022/06/03 00:36:24;;;;;;;12.07;10.80;;;;;;;;;;5083230;28;20420;-84
2022/06/03 00:39:01;;;;;;;9.33;8.43;;;;;;;;;;5086984;28;20916;-85
2022/06/03 00:41:42;;;;;;;10.60;9.57;;;;;;;;;;5082796;28;20488;-85
2022/06/03 00:44:19;;;;;;;10.10;9.00;;;;;;;;;;5698892;22;20487;-85
2022/06/03 00:46:54;;;;;;;11.20;9.97;;;;;;;;;;5065828;28;20374;-84
2022/06/03 00:49:40;;;;;;;10.30;9.07;;;;;;;;;;5061883;28;20420;-85
2022/06/03 00:52:09;;;;;;;9.60;8.60;;;;;;;;;;5061497;28;20450;-85
2022/06/03 00:54:45;;;;;;;9.93;8.57;;;;;;;;;;5062960;28;20417;-85
2022/06/03 00:57:20;;;;;;;10.30;9.23;;;;;;;;;;5061973;28;20430;-84
2022/06/03 01:00:04;;;;;;;10.33;9.20;;;;;;;;;;5061883;28;20404;-85
2022/06/03 01:02:40;;;;;;;10.23;9.23;;;;;;;;;;5042854;28;20405;-85
2022/06/03 01:05:21;;;;;;;9.93;8.83;;;;;;;;;;5042674;28;20436;-83
2022/06/03 01:08:06;;;;;;;10.17;9.17;;;;;;;;;;5062297;28;20452;-85
2022/06/03 01:10:51;;;;;;;10.73;9.50;;;;;;;;;;5062858;28;20386;-84
2022/06/03 01:13:35;;;;;;;16.00;9.43;;;;;;;;;;5045995;28;20465;-85
2022/06/03 01:16:20;;;;;;;9.83;8.90;;;;;;;;;;5062455;28;20424;-85
2022/06/03 01:18:49;;;;;;;9.30;8.50;;;;;;;;;;5062475;28;20397;-85
2022/06/03 01:21:34;;;;;;;12.10;9.43;;;;;;;;;;5043502;28;20409;-85
2022/06/03 01:24:02;;;;;;;9.23;8.30;;;;;;;;;;5061648;28;20457;-85
2022/06/03 01:26:44;;;;;;;10.57;9.47;;;;;;;;;;5061205;28;20428;-85
2022/06/03 01:29:10;;;;;;;11.17;8.50;;;;;;;;;;5040817;28;20429;-85
2022/06/03 01:31:59;;;;;;;9.63;8.60;;;;;;;;;;5048778;28;20454;-83
2022/06/03 01:34:28;;;;;;;9.47;8.57;;;;;;;;;;5002783;28;20442;-84
2022/06/03 01:37:03;;;;;;;8.77;7.97;;;;;;;;;;5049053;28;20445;-83
2022/06/03 01:39:29;;;;;;;9.90;9.00;;;;;;;;;;5041324;28;20402;-84
2022/06/03 01:42:14;;;;;;;8.40;7.60;;;;;;;;;;5040655;28;20467;-84
2022/06/03 01:44:53;;;;;;;8.90;8.00;;;;;;;;;;5040679;28;20434;-84
2022/06/03 01:47:25;;;;;;;9.40;8.43;;;;;;;;;;5040623;28;20390;-84
2022/06/03 01:50:00;;;;;;;10.07;8.63;;;;;;;;;;5040868;28;20429;-84
2022/06/03 01:52:52;;;;;;;13.60;8.90;;;;;;;;;;5023714;28;20450;-84
2022/06/03 01:55:24;;;;;;;13.23;8.80;;;;;;;;;;5035962;28;20430;-82
2022/06/03 01:58:11;;;;;;;10.27;9.27;;;;;;;;;;5042184;28;20482;-84
2022/06/03 02:00:41;;;;;;;10.33;9.10;;;;;;;;;;5041964;28;20391;-84
2022/06/03 02:03:23;;;;;;;10.50;9.10;;;;;;;;;;5022664;28;20461;-84
2022/06/03 02:06:01;;;;;;;10.67;9.63;;;;;;;;;;5022844;28;20517;-84
2022/06/03 02:08:42;;;;;;;11.60;9.73;;;;;;;;;;5040123;28;20528;-83
2022/06/03 02:11:27;;;;;;;9.80;8.70;;;;;;;;;;5022422;28;20830;-84
2022/06/03 02:13:56;;;;;;;11.30;8.63;;;;;;;;;;5039731;28;20485;-83
2022/06/03 02:16:45;;;;;;;11.90;10.60;;;;;;;;;;5023346;28;20402;-84
2022/06/03 02:19:46;;;;;;;11.00;9.67;;;;;;;;;;5040264;28;20409;-84
2022/06/03 02:22:12;;;;;;;9.57;8.63;;;;;;;;;;4940127;29;20455;-84
2022/06/03 02:24:44;;;;;;;10.50;9.40;;;;;;;;;;5020292;28;20426;-84
2022/06/03 02:27:22;;;;;;;10.40;9.30;;;;;;;;;;5040460;28;20395;-85
2022/06/03 02:32:59;;;;;;;9.63;8.60;;;;;;;;;;5058800;28;20471;-83
2022/06/03 02:35:41;;;;;;;10.13;9.10;;;;;;;;;;5048918;28;20450;-83
2022/06/03 02:38:07;;;;;;;9.07;8.27;;;;;;;;;;5040831;28;20526;-84
2022/06/03 02:40:52;;;;;;;10.50;8.90;;;;;;;;;;5046427;28;20434;-82
2022/06/03 02:43:18;;;;;;;8.93;8.13;;;;;;;;;;5053220;28;20426;-82
2022/06/03 02:45:44;;;;;;;11.97;9.13;;;;;;;;;;5049851;28;20415;-82
2022/06/03 02:48:17;;;;;;;9.57;8.60;;;;;;;;;;5037519;28;20417;-84
2022/06/03 02:50:52;;;;;;;8.80;8.00;;;;;;;;;;5024541;28;20406;-85
2022/06/03 02:53:31;;;;;;;9.03;8.17;;;;;;;;;;5041952;28;20450;-84
2022/06/03 02:56:23;;;;;;;10.27;9.27;;;;;;;;;;5041894;28;20480;-85
2022/06/03 02:59:19;;;;;;;10.43;8.90;;;;;;;;;;5024245;28;20407;-85
2022/06/03 03:01:58;;;;;;;9.37;8.37;;;;;;;;;;5024086;28;20410;-84
2022/06/03 03:04:43;;;;;;;12.00;10.20;;;;;;;;;;5029181;28;20444;-85
2022/06/03 03:07:09;;;;;;;10.00;9.00;;;;;;;;;;5052461;28;20422;-85
2022/06/03 03:09:35;;;;;;;9.70;8.90;;;;;;;;;;5043099;28;20410;-83
2022/06/03 03:12:19;;;;;;;13.33;9.50;;;;;;;;;;5041722;28;20965;-83
2022/06/03 03:14:45;;;;;;;10.77;9.60;;;;;;;;;;5059586;28;20429;-83
2022/06/03 03:17:34;;;;;;;8.43;7.63;;;;;;;;;;5062530;28;20401;-84
2022/06/03 03:20:10;;;;;;;8.77;7.90;;;;;;;;;;5008229;28;20409;-85
2022/06/03 03:22:36;;;;;;;10.37;9.37;;;;;;;;;;5043560;28;20420;-85
2022/06/03 03:25:20;;;;;;;9.13;8.23;;;;;;;;;;5043871;28;20433;-85
2022/06/03 03:28:05;;;;;;;9.53;8.53;;;;;;;;;;5062098;28;20405;-84
2022/06/03 03:30:43;;;;;;;11.17;9.00;;;;;;;;;;5062646;28;20494;-85
2022/06/03 03:36:02;;;;;;;9.37;8.50;;;;;;;;;;5081711;28;20468;-83
2022/06/03 03:38:47;;;;;;;11.43;9.27;;;;;;;;;;5085643;28;20408;-83
2022/06/03 03:41:48;;;;;;;12.23;9.30;;;;;;;;;;5085719;28;20487;-83
2022/06/03 03:44:23;;;;;;;12.60;9.90;;;;;;;;;;4974852;28;20425;-83
2022/06/03 03:47:08;;;;;;;10.77;9.67;;;;;;;;;;5052150;28;20430;-83
2022/06/03 03:49:52;;;;;;;15.00;9.30;;;;;;;;;;5063896;28;20394;-82
2022/06/03 03:52:33;;;;;;;13.40;10.10;;;;;;;;;;5064783;28;20398;-83
2022/06/03 03:54:59;;;;;;;11.60;8.80;;;;;;;;;;5064816;28;20422;-83
2022/06/03 03:57:44;;;;;;;10.40;8.87;;;;;;;;;;5066110;28;20398;-83
2022/06/03 04:00:19;;;;;;;11.50;9.03;;;;;;;;;;5066754;28;20877;-82
2022/06/03 04:02:57;;;;;;;9.07;8.10;;;;;;;;;;5049691;28;20452;-83
2022/06/03 04:05:26;;;;;;;10.57;9.13;;;;;;;;;;5067234;28;20421;-83
2022/06/03 04:07:55;;;;;;;9.67;8.83;;;;;;;;;;5068429;28;20470;-83
2022/06/03 04:10:45;;;;;;;10.07;9.07;;;;;;;;;;5050686;28;20405;-83
2022/06/03 04:13:31;;;;;;;9.80;8.60;;;;;;;;;;5031003;28;20410;-83
2022/06/03 04:16:36;;;;;;;9.57;8.57;;;;;;;;;;5066623;28;20397;-83
2022/06/03 04:19:05;;;;;;;9.50;8.50;;;;;;;;;;4967074;29;20432;-83
2022/06/03 04:21:37;;;;;;;9.73;8.07;;;;;;;;;;4967121;29;20461;-83
2022/06/03 04:24:21;;;;;;;10.50;8.07;;;;;;;;;;5021086;28;20442;-83
2022/06/03 04:26:56;;;;;;;9.40;8.50;;;;;;;;;;5067600;28;20405;-84
2022/06/03 04:29:34;;;;;;;11.83;8.13;;;;;;;;;;5071533;28;20405;-83
2022/06/03 04:32:18;;;;;;;9.70;7.00;;;;;;;;;;5071689;28;20390;-84
2022/06/03 04:35:17;;;;;;;9.53;7.60;;;;;;;;;;5067918;28;20473;-84
2022/06/03 04:37:43;;;;;;;9.13;8.17;;;;;;;;;;5012672;28;20414;-84
2022/06/03 04:40:28;;;;;;;8.80;7.27;;;;;;;;;;5067608;28;20416;-84
2022/06/03 04:43:13;;;;;;;8.30;7.07;;;;;;;;;;5048825;28;20473;-84
2022/06/03 04:45:47;;;;;;;9.40;8.53;;;;;;;;;;5066280;28;20397;-84
2022/06/03 04:48:16;;;;;;;8.63;7.47;;;;;;;;;;5048581;28;20408;-84
2022/06/03 04:50:49;;;;;;;7.07;6.37;;;;;;;;;;5067058;28;20402;-83
2022/06/03 04:53:18;;;;;;;8.50;7.60;;;;;;;;;;5062141;28;20517;-84
2022/06/03 04:55:50;;;;;;;8.33;7.47;;;;;;;;;;5065214;28;20401;-84
2022/06/03 04:58:32;;;;;;;9.73;7.70;;;;;;;;;;5061245;28;20485;-83
2022/06/03 05:01:04;;;;;;;7.70;6.90;;;;;;;;;;5063019;28;20389;-84
2022/06/03 05:03:42;;;;;;;9.90;6.83;;;;;;;;;;5066049;28;20432;-84
2022/06/03 05:06:35;;;;;;;7.37;6.13;;;;;;;;;;5065610;28;20409;-81
2022/06/03 05:09:36;;;;;;;7.70;6.50;;;;;;;;;;5056500;28;20438;-82
2022/06/03 05:12:25;;;;;;;7.20;6.50;;;;;;;;;;4960609;29;20497;-83
2022/06/03 05:14:55;;;;;;;6.53;5.93;;;;;;;;;;5052513;28;20462;-83
2022/06/03 05:17:27;;;;;;;6.83;6.23;;;;;;;;;;5064438;28;20464;-83
2022/06/03 05:20:05;;;;;;;6.90;6.20;;;;;;;;;;5059172;28;20397;-83
2022/06/03 05:22:31;;;;;;;6.40;5.80;;;;;;;;;;5041467;28;20542;-82
2022/06/03 05:25:16;;;;;;;7.73;5.50;;;;;;;;;;5062050;28;20461;-83
2022/06/03 05:27:51;;;;;;;7.80;6.23;;;;;;;;;;5059884;28;20398;-83
2022/06/03 05:30:23;;;;;;;5.50;4.90;;;;;;;;;;5058805;28;20810;-82
2022/06/03 05:33:09;;;;;;;9.63;5.97;;;;;;;;;;5060166;28;20402;-82
2022/06/03 05:35:41;;;;;;;10.13;6.90;;;;;;;;;;5060052;28;20434;-82
2022/06/03 05:38:13;;;;;;;13.90;7.60;;;;;;;;;;5061275;28;20453;-82
2022/06/03 05:40:45;;;;;;;6.60;5.90;;;;;;;;;;5039971;28;20410;-82
2022/06/03 05:43:18;;;;;;;8.60;5.93;;;;;;;;;;5039097;28;20472;-83
2022/06/03 05:45:50;;;;;;;7.50;5.67;;;;;;;;;;5060686;28;20488;-83
2022/06/03 05:48:22;;;;;;;7.07;6.20;;;;;;;;;;5062832;28;20394;-82
2022/06/03 05:51:14;;;;;;;7.93;5.87;;;;;;;;;;5063551;28;20536;-83
2022/06/03 05:53:52;;;;;;;6.17;5.57;;;;;;;;;;5044314;28;20476;-82
2022/06/03 05:56:21;;;;;;;6.97;6.27;;;;;;;;;;5045036;28;20427;-82
2022/06/03 05:58:59;;;;;;;6.40;5.57;;;;;;;;;;5062177;28;20428;-83
2022/06/03 06:01:28;;;;;;;8.77;6.00;;;;;;;;;;5062125;28;20491;-83
2022/06/03 06:04:00;;;;;;;8.40;5.50;;;;;;;;;;5062084;28;20453;-83
2022/06/03 06:06:37;;;;;;;5.13;4.63;;;;;;;;;;5062111;28;20394;-82
2022/06/03 06:09:20;;;;;;;6.80;5.33;;;;;;;;;;5063113;28;20441;-83
2022/06/03 06:11:48;;;;;;;9.07;5.10;;;;;;;;;;5061240;28;20389;-85
2022/06/03 06:14:14;;;;;;;5.90;5.30;;;;;;;;;;5042982;28;20457;-83
2022/06/03 06:16:42;;;;;;;5.33;3.97;;;;;;;;;;5064075;28;20413;-83
2022/06/03 06:19:12;;;;;;;7.00;6.07;;;;;;;;;;5047881;28;20949;-83
2022/06/03 06:21:38;;;;;;;17.17;5.10;;;;;;;;;;5065577;28;20445;-83
2022/06/03 06:24:27;;;;;;;5.30;4.00;;;;;;;;;;5066426;28;20849;-83
2022/06/03 06:27:06;;;;;;;4.33;3.60;;;;;;;;;;5061170;28;20433;-83
2022/06/03 06:29:44;;;;;;;6.27;4.20;;;;;;;;;;5053774;28;20425;-83
2022/06/03 06:32:29;;;;;;;9.47;4.07;;;;;;;;;;5062397;28;20845;-83
2022/06/03 06:35:14;;;;;;;5.07;3.73;;;;;;;;;;5062874;28;20463;-83
2022/06/03 06:37:43;;;;;;;6.23;5.63;;;;;;;;;;5055733;28;20814;-83
2022/06/03 06:40:15;;;;;;;5.23;3.63;;;;;;;;;;5064405;28;20428;-82
2022/06/03 06:42:59;;;;;;;5.10;3.50;;;;;;;;;;5068776;28;20452;-84
2022/06/03 06:45:27;;;;;;;6.10;4.33;;;;;;;;;;5064659;28;20437;-84
2022/06/03 06:48:08;;;;;;;3.93;3.00;;;;;;;;;;5063598;28;20445;-83
2022/06/03 06:50:57;;;;;;;5.37;4.10;;;;;;;;;;5065034;28;20421;-83
2022/06/03 06:53:39;;;;;;;5.80;4.20;;;;;;;;;;5046142;28;20421;-83
2022/06/03 06:56:08;;;;;;;6.83;3.70;;;;;;;;;;5065718;28;20413;-83
2022/06/03 06:59:01;;;;;;;6.73;3.50;;;;;;;;;;5048070;28;20422;-83
2022/06/03 07:01:30;;;;;;;3.97;3.57;;;;;;;;;;5062292;28;20460;-83
2022/06/03 07:03:59;;;;;;;6.57;4.00;;;;;;;;;;5066476;28;20434;-84
2022/06/03 07:06:42;;;;;;;5.80;2.90;;;;;;;;;;5066115;28;20469;-83
2022/06/03 07:09:11;;;;;;;4.00;3.00;;;;;;;;;;5066280;28;20397;-83
2022/06/03 07:11:51;;;;;;;5.67;3.53;;;;;;;;;;5048275;28;20468;-83
2022/06/03 07:14:25;;;;;;;3.80;3.40;;;;;;;;;;5066368;28;20426;-83
2022/06/03 07:19:50;;;;;;;5.83;3.20;;;;;;;;;;5063363;28;20436;-83
2022/06/03 07:22:16;;;;;;;7.70;4.00;;;;;;;;;;5064303;28;20453;-83
2022/06/03 07:25:05;;;;;;;4.30;3.03;;;;;;;;;;5065936;28;20493;-83
2022/06/03 07:27:43;;;;;;;3.87;3.20;;;;;;;;;;5045795;28;20428;-84
2022/06/03 07:30:12;;;;;;;5.00;3.83;;;;;;;;;;5059730;28;20421;-83
2022/06/03 07:32:50;;;;;;;4.90;3.37;;;;;;;;;;5045233;28;20455;-83
2022/06/03 07:35:20;;;;;;;4.73;3.27;;;;;;;;;;5063340;28;20452;-83
2022/06/03 07:38:05;;;;;;;7.30;3.23;;;;;;;;;;5043923;28;20418;-84
2022/06/03 07:40:37;;;;;;;3.13;2.63;;;;;;;;;;5042894;28;20481;-83
2022/06/03 07:43:07;;;;;;;8.37;3.00;;;;;;;;;;5042662;28;20504;-83
2022/06/03 07:45:39;;;;;;;2.90;2.60;;;;;;;;;;5043592;28;20449;-83
2022/06/03 07:48:20;;;;;;;3.67;2.90;;;;;;;;;;5044712;28;20445;-83
2022/06/03 07:50:49;;;;;;;3.60;3.07;;;;;;;;;;5053970;28;20383;-83
2022/06/03 07:53:22;;;;;;;4.17;3.27;;;;;;;;;;5046632;28;20441;-84
2022/06/03 07:55:53;;;;;;;3.67;2.87;;;;;;;;;;5045972;28;20386;-83
2022/06/03 07:58:22;;;;;;;4.60;3.40;;;;;;;;;;5045602;28;20413;-83
2022/06/03 08:00:50;;;;;;;3.87;2.60;;;;;;;;;;5061785;28;20422;-84
2022/06/03 08:03:18;;;;;;;3.63;3.13;;;;;;;;;;5061320;28;20484;-84
2022/06/03 08:05:46;;;;;;;5.97;3.13;;;;;;;;;;5061454;28;20993;-83
2022/06/03 08:11:00;;;;;;;4.63;3.17;;;;;;;;;;5062193;28;20516;-83
2022/06/03 08:13:27;;;;;;;3.00;2.70;;;;;;;;;;5054360;28;20463;-83
2022/06/03 08:15:57;;;;;;;5.33;3.43;;;;;;;;;;5055386;28;20420;-84
2022/06/03 08:18:25;;;;;;;6.40;2.90;;;;;;;;;;5065966;28;20430;-84
2022/06/03 08:20:54;;;;;;;3.97;3.23;;;;;;;;;;5063226;28;20497;-84
2022/06/03 08:23:20;;;;;;;4.43;3.03;;;;;;;;;;5061754;28;20508;-84
2022/06/03 08:25:48;;;;;;;4.63;2.90;;;;;;;;;;5060149;28;20429;-84
2022/06/03 08:28:18;;;;;;;13.20;3.87;;;;;;;;;;5060663;28;20413;-84
2022/06/03 08:30:49;;;;;;;4.63;2.90;;;;;;;;;;5060047;28;20413;-84
2022/06/03 08:33:18;;;;;;;4.60;3.00;;;;;;;;;;5059556;28;20410;-84
2022/06/03 08:35:45;;;;;;;3.57;3.03;;;;;;;;;;5060151;28;20433;-83
2022/06/03 08:38:18;;;;;;;3.70;2.90;;;;;;;;;;5061468;28;20413;-84
2022/06/03 08:40:47;;;;;;;3.90;2.90;;;;;;;;;;5066071;28;20427;-84
2022/06/03 08:43:28;;;;;;;10.10;3.27;;;;;;;;;;5067372;28;20489;-84
2022/06/03 08:45:55;;;;;;;4.97;3.40;;;;;;;;;;5058495;28;20417;-84
2022/06/03 08:48:26;;;;;;;4.90;3.37;;;;;;;;;;5063145;28;20429;-83
2022/06/03 08:50:55;;;;;;;5.00;3.10;;;;;;;;;;5064620;28;21152;-84
2022/06/03 08:53:37;;;;;;;3.37;3.03;;;;;;;;;;5052028;28;20433;-85
2022/06/03 08:56:03;;;;;;;4.20;2.67;;;;;;;;;;5057019;28;20413;-84
2022/06/03 08:58:48;;;;;;;3.70;2.80;;;;;;;;;;5066654;28;20421;-83
2022/06/03 09:01:17;;;;;;;5.33;2.87;;;;;;;;;;5066501;28;20444;-83
2022/06/03 09:03:49;;;;;;;5.57;2.90;;;;;;;;;;5066414;28;20448;-83
2022/06/03 09:06:35;;;;;;;6.40;3.50;;;;;;;;;;5068023;28;20401;-83
2022/06/03 09:09:05;;;;;;;4.97;3.20;;;;;;;;;;5067367;28;20408;-84
2022/06/03 09:11:42;;;;;;;5.20;2.97;;;;;;;;;;5067087;28;20409;-83
2022/06/03 09:14:11;;;;;;;6.70;2.60;;;;;;;;;;5066991;28;20425;-83
2022/06/03 09:16:38;;;;;;;3.43;3.13;;;;;;;;;;5067464;28;20405;-85
2022/06/03 09:19:09;;;;;;;3.77;2.77;;;;;;;;;;5067752;28;20845;-83
2022/06/03 09:21:41;;;;;;;5.47;3.03;;;;;;;;;;5067416;28;20452;-83
2022/06/03 09:24:09;;;;;;;6.90;2.83;;;;;;;;;;5067677;28;20505;-83
2022/06/03 09:26:46;;;;;;;4.80;3.40;;;;;;;;;;5048986;28;20409;-84
2022/06/03 09:29:14;;;;;;;3.90;2.70;;;;;;;;;;5066312;28;20401;-83
2022/06/03 09:31:44;;;;;;;5.80;3.07;;;;;;;;;;5048251;28;20513;-83
2022/06/03 09:34:11;;;;;;;4.17;2.80;;;;;;;;;;5088863;22;20481;-83
2022/06/03 09:36:37;;;;;;;3.73;2.63;;;;;;;;;;5055910;28;20524;-84
2022/06/03 09:39:08;;;;;;;3.90;3.17;;;;;;;;;;5062648;28;20781;-82
2022/06/03 09:41:39;;;;;;;6.23;2.90;;;;;;;;;;5060493;28;20457;-83
2022/06/03 09:44:06;;;;;;;4.43;3.07;;;;;;;;;;5061958;28;20513;-83
2022/06/03 09:46:34;;;;;;;5.80;2.57;;;;;;;;;;5066340;28;20420;-84
2022/06/03 09:49:01;;;;;;;5.13;2.70;;;;;;;;;;5045628;28;20417;-83
2022/06/03 09:54:20;;;;;;;3.77;3.37;;;;;;;;;;5062957;28;20447;-84
2022/06/03 09:56:50;;;;;;;3.17;2.83;;;;;;;;;;5044729;28;20774;-83
2022/06/03 09:59:16;;;;;;;3.87;2.50;;;;;;;;;;5044001;28;20409;-83
2022/06/03 10:01:42;;;;;;;5.50;3.53;;;;;;;;;;5061265;28;20517;-84
2022/06/03 10:04:08;;;;;;;3.40;2.57;;;;;;;;;;5061613;28;20422;-84
2022/06/03 10:06:46;;;;;;;4.60;2.90;;;;;;;;;;5061062;28;20559;-84
2022/06/03 10:14:43;;;;;;;4.67;3.00;;;;;;;;;;5060208;28;20432;-83
2022/06/03 10:17:10;;;;;;;3.00;2.50;;;;;;;;;;5042777;28;20496;-84
2022/06/03 10:19:36;;;;;;;4.13;2.50;;;;;;;;;;5060462;28;20470;-83
2022/06/03 10:22:08;;;;;;;7.23;2.63;;;;;;;;;;5060652;28;20461;-84
2022/06/03 10:24:34;;;;;;;4.10;3.43;;;;;;;;;;5026750;28;20434;-81
2022/06/03 10:27:02;;;;;;;4.10;3.30;;;;;;;;;;5047088;28;20409;-82
2022/06/03 10:29:29;;;;;;;3.97;3.07;;;;;;;;;;5067145;28;20402;-82
2022/06/03 10:31:59;;;;;;;4.97;3.03;;;;;;;;;;5042805;28;20413;-83
2022/06/03 10:34:27;;;;;;;5.10;3.67;;;;;;;;;;5059843;28;20516;-84
2022/06/03 10:36:54;;;;;;;5.43;3.10;;;;;;;;;;5059537;28;20410;-83
2022/06/03 10:39:23;;;;;;;3.67;3.30;;;;;;;;;;5063757;28;20595;-83
2022/06/03 10:41:53;;;;;;;5.30;3.43;;;;;;;;;;5042405;28;20509;-83
2022/06/03 10:44:21;;;;;;;3.40;3.10;;;;;;;;;;5042082;28;20431;-83
2022/06/03 10:47:06;;;;;;;7.83;3.63;;;;;;;;;;5063293;28;20410;-83
2022/06/03 10:49:33;;;;;;;5.13;3.53;;;;;;;;;;5060811;28;20440;-83
2022/06/03 11:03:07;;;;;;;3.90;3.10;;;;;;;;;;5059048;28;20452;-82
2022/06/03 11:05:36;;;;;;;4.77;3.67;;;;;;;;;;5058874;28;20422;-83
2022/06/03 11:08:02;;;;;;;5.80;3.80;;;;;;;;;;5059434;28;20480;-83
2022/06/03 11:10:36;;;;;;;5.03;3.53;;;;;;;;;;5060544;28;20402;-85
2022/06/03 11:13:05;;;;;;;4.60;3.40;;;;;;;;;;5047211;28;20463;-82
2022/06/03 11:15:36;;;;;;;4.17;3.23;;;;;;;;;;5062194;28;20440;-83
2022/06/03 11:18:15;;;;;;;7.13;4.00;;;;;;;;;;5059348;28;20402;-84
2022/06/03 11:20:41;;;;;;;4.47;3.53;;;;;;;;;;5042651;28;20504;-83
2022/06/03 11:23:08;;;;;;;3.80;3.30;;;;;;;;;;5059944;28;20457;-83
2022/06/03 11:25:36;;;;;;;4.97;3.23;;;;;;;;;;5063084;28;20429;-83
2022/06/03 11:28:05;;;;;;;5.97;3.30;;;;;;;;;;5063210;28;20428;-81
2022/06/03 11:30:31;;;;;;;3.20;2.90;;;;;;;;;;5063921;28;20748;-83
2022/06/03 11:33:02;;;;;;;7.57;3.50;;;;;;;;;;5062820;28;20450;-85
2022/06/03 11:35:31;;;;;;;3.80;2.80;;;;;;;;;;5061768;28;20449;-84
2022/06/03 11:38:00;;;;;;;4.50;3.00;;;;;;;;;;5063515;28;20412;-84
2022/06/03 11:40:31;;;;;;;3.80;2.80;;;;;;;;;;5063984;28;20917;-83
2022/06/03 11:43:01;;;;;;;6.90;2.83;;;;;;;;;;5063209;28;20440;-83
2022/06/03 11:45:33;;;;;;;6.30;2.70;;;;;;;;;;5045492;28;20433;-83
2022/06/03 11:48:02;;;;;;;5.77;2.93;;;;;;;;;;5046256;28;20790;-83
2022/06/03 11:50:29;;;;;;;7.40;3.00;;;;;;;;;;5063347;28;20485;-82
2022/06/03 11:52:56;;;;;;;3.33;2.77;;;;;;;;;;5063090;28;20472;-84
2022/06/03 11:55:23;;;;;;;3.87;3.53;;;;;;;;;;5062990;28;20426;-84
2022/06/03 11:57:57;;;;;;;6.40;2.90;;;;;;;;;;5044908;28;20469;-84
2022/06/03 12:00:24;;;;;;;5.13;3.00;;;;;;;;;;5045101;28;20908;-84
2022/06/03 12:03:09;;;;;;;3.40;2.97;;;;;;;;;;5044768;28;20445;-82
2022/06/03 12:05:45;;;;;;;4.50;3.27;;;;;;;;;;5062781;28;20779;-83
2022/06/03 12:08:14;;;;;;;8.43;3.37;;;;;;;;;;5062964;28;20965;-83
2022/06/03 12:10:55;;;;;;;3.30;2.90;;;;;;;;;;5044354;28;20405;-83
2022/06/03 12:13:28;;;;;;;4.93;2.60;;;;;;;;;;5044247;28;20415;-83
2022/06/03 12:15:54;;;;;;;6.60;2.80;;;;;;;;;;5064868;28;20871;-84
2022/06/03 12:18:32;;;;;;;4.00;2.80;;;;;;;;;;5062135;28;20788;-83
2022/06/03 12:21:07;;;;;;;3.30;2.53;;;;;;;;;;5043731;28;20484;-83
2022/06/03 12:23:41;;;;;;;5.23;3.20;;;;;;;;;;5058465;28;20481;-81
2022/06/03 12:26:07;;;;;;;5.23;2.73;;;;;;;;;;5054011;28;20917;-82
2022/06/03 12:28:41;;;;;;;2.77;2.50;;;;;;;;;;5064358;28;20936;-83
2022/06/03 12:31:20;;;;;;;5.10;3.40;;;;;;;;;;5064712;28;20465;-82
2022/06/03 12:33:46;;;;;;;5.90;3.13;;;;;;;;;;5045748;28;20807;-84
2022/06/03 12:36:31;;;;;;;4.93;3.40;;;;;;;;;;5062026;28;20382;-84
2022/06/03 12:39:13;;;;;;;6.70;3.30;;;;;;;;;;5062473;28;20532;-84
2022/06/03 12:41:45;;;;;;;5.87;3.60;;;;;;;;;;5044152;28;20479;-84
2022/06/03 12:44:30;;;;;;;5.23;3.67;;;;;;;;;;5064923;28;20504;-84
2022/06/03 12:47:15;;;;;;;4.47;3.40;;;;;;;;;;5065682;28;20983;-84
2022/06/03 12:49:44;;;;;;;3.97;3.20;;;;;;;;;;5066330;28;20823;-84
2022/06/03 12:52:12;;;;;;;4.10;3.47;;;;;;;;;;5047343;28;20424;-84
2022/06/03 12:54:45;;;;;;;5.00;3.60;;;;;;;;;;5064009;28;20509;-82
2022/06/03 12:57:16;;;;;;;7.73;3.40;;;;;;;;;;5064654;28;20389;-83
2022/06/03 12:59:52;;;;;;;4.43;3.40;;;;;;;;;;5061264;28;20413;-83
2022/06/03 13:02:21;;;;;;;7.13;3.10;;;;;;;;;;5060100;28;20441;-83
2022/06/03 13:04:47;;;;;;;4.00;2.80;;;;;;;;;;5059598;28;20430;-83
2022/06/03 13:07:16;;;;;;;5.07;3.50;;;;;;;;;;5060621;28;20401;-82
2022/06/03 13:09:52;;;;;;;4.80;3.47;;;;;;;;;;5049027;28;20475;-82
2022/06/03 13:12:21;;;;;;;7.70;3.43;;;;;;;;;;5063982;28;20949;-83
2022/06/03 13:14:47;;;;;;;3.40;3.10;;;;;;;;;;5061479;28;20414;-83
2022/06/03 13:17:32;;;;;;;6.40;3.73;;;;;;;;;;5060743;28;20405;-83
2022/06/03 13:19:59;;;;;;;3.70;3.33;;;;;;;;;;5061334;28;20398;-82
2022/06/03 13:22:29;;;;;;;9.30;3.80;;;;;;;;;;5043502;28;20461;-84
2022/06/03 13:25:28;;;;;;;5.33;3.70;;;;;;;;;;5042812;28;20533;-84
2022/06/03 13:28:14;;;;;;;4.27;3.83;;;;;;;;;;5018215;28;20425;-84
2022/06/03 13:30:40;;;;;;;4.40;3.30;;;;;;;;;;5061944;28;20394;-84
2022/06/03 13:33:18;;;;;;;6.80;3.43;;;;;;;;;;5044056;28;20436;-84
2022/06/03 13:35:59;;;;;;;4.53;4.10;;;;;;;;;;5043637;28;20486;-84
2022/06/03 13:38:38;;;;;;;7.03;4.97;;;;;;;;;;5043262;28;20406;-84
2022/06/03 13:44:09;;;;;;;5.40;3.77;;;;;;;;;;5060758;28;20568;-84
2022/06/03 13:46:36;;;;;;;6.67;3.90;;;;;;;;;;5042555;28;20440;-84
2022/06/03 13:49:15;;;;;;;5.70;4.60;;;;;;;;;;5043472;28;20963;-84
2022/06/03 13:51:47;;;;;;;5.40;4.10;;;;;;;;;;5043164;28;20466;-84
2022/06/03 13:54:21;;;;;;;5.53;3.90;;;;;;;;;;5043010;28;20479;-84
2022/06/03 13:57:06;;;;;;;5.00;4.20;;;;;;;;;;5061165;28;20386;-84
2022/06/03 13:59:34;;;;;;;7.97;3.83;;;;;;;;;;5060321;28;20767;-81
2022/06/03 14:02:01;;;;;;;4.50;3.87;;;;;;;;;;5058124;28;20540;-82
2022/06/03 14:04:31;;;;;;;5.30;4.70;;;;;;;;;;5040376;28;20434;-82
2022/06/03 14:07:02;;;;;;;8.50;4.17;;;;;;;;;;5058492;28;20385;-82
2022/06/03 14:09:48;;;;;;;12.10;4.90;;;;;;;;;;5059458;28;20441;-82
2022/06/03 14:12:17;;;;;;;6.47;4.03;;;;;;;;;;5043473;28;20401;-82
2022/06/03 14:15:02;;;;;;;9.20;4.97;;;;;;;;;;5071687;28;20421;-80
2022/06/03 14:17:31;;;;;;;7.47;4.07;;;;;;;;;;5047675;28;21075;-83
2022/06/03 14:20:01;;;;;;;7.83;3.90;;;;;;;;;;5061597;28;20405;-82
2022/06/03 14:22:32;;;;;;;6.23;3.80;;;;;;;;;;5061265;28;20544;-83
2022/06/03 14:25:24;;;;;;;4.83;3.80;;;;;;;;;;5061731;28;20476;-83
2022/06/03 14:27:50;;;;;;;8.93;3.70;;;;;;;;;;5030480;28;20417;-83
2022/06/03 14:30:21;;;;;;;5.00;3.50;;;;;;;;;;5059997;28;20400;-83
2022/06/03 14:32:52;;;;;;;4.87;3.60;;;;;;;;;;5059693;28;20893;-83
2022/06/03 14:35:20;;;;;;;5.13;3.70;;;;;;;;;;5060043;28;20494;-83
2022/06/03 14:37:50;;;;;;;6.40;3.40;;;;;;;;;;5060208;28;20466;-83
2022/06/03 14:40:25;;;;;;;3.87;3.33;;;;;;;;;;5060383;28;20405;-83
2022/06/03 14:42:53;;;;;;;9.50;3.80;;;;;;;;;;5041571;28;20484;-82
2022/06/03 14:45:21;;;;;;;4.90;3.60;;;;;;;;;;5041687;28;20434;-83
2022/06/03 14:47:49;;;;;;;4.80;4.30;;;;;;;;;;5060307;28;20472;-82
2022/06/03 14:50:18;;;;;;;7.60;4.13;;;;;;;;;;5042624;28;20410;-83
2022/06/03 14:52:50;;;;;;;4.63;3.50;;;;;;;;;;5043352;28;20413;-82
2022/06/03 14:55:21;;;;;;;4.73;3.67;;;;;;;;;;5042201;28;20433;-82
2022/06/03 14:57:47;;;;;;;5.83;3.63;;;;;;;;;;5044111;28;20406;-82
2022/06/03 15:00:13;;;;;;;14.93;3.17;;;;;;;;;;5049140;28;20405;-84
2022/06/03 15:02:43;;;;;;;5.57;3.73;;;;;;;;;;5047702;28;20489;-84
2022/06/03 15:05:18;;;;;;;5.03;3.77;;;;;;;;;;5047018;28;20429;-84
2022/06/03 15:07:48;;;;;;;4.87;3.50;;;;;;;;;;5066864;28;20397;-83
2022/06/03 15:10:17;;;;;;;9.27;4.00;;;;;;;;;;5052969;28;20402;-83
2022/06/03 15:12:51;;;;;;;4.43;4.03;;;;;;;;;;5070797;28;20496;-81
2022/06/03 15:15:22;;;;;;;11.80;4.40;;;;;;;;;;5053351;28;20437;-83
2022/06/03 15:17:48;;;;;;;6.00;4.27;;;;;;;;;;5053827;28;20424;-83
2022/06/03 15:20:15;;;;;;;5.33;4.70;;;;;;;;;;5071521;28;20990;-83
2022/06/03 15:22:45;;;;;;;5.60;3.80;;;;;;;;;;5071769;28;20459;-82
2022/06/03 15:25:37;;;;;;;6.10;3.37;;;;;;;;;;5070849;28;20425;-83
2022/06/03 15:28:11;;;;;;;4.20;3.80;;;;;;;;;;5050980;28;20409;-82
2022/06/03 15:30:37;;;;;;;4.67;3.63;;;;;;;;;;5073724;28;20409;-82
2022/06/03 15:33:14;;;;;;;7.20;4.00;;;;;;;;;;5071489;28;20409;-82
2022/06/03 15:35:40;;;;;;;5.53;3.50;;;;;;;;;;5060268;22;20493;-83
2022/06/03 15:38:07;;;;;;;8.00;4.77;;;;;;;;;;5049102;28;20584;-84
2022/06/03 15:40:36;;;;;;;4.00;3.33;;;;;;;;;;5050496;28;20394;-85
2022/06/03 15:43:03;;;;;;;4.90;3.77;;;;;;;;;;5049862;28;20816;-85
2022/06/03 15:45:35;;;;;;;4.80;3.33;;;;;;;;;;5048866;28;20425;-85
2022/06/03 15:48:04;;;;;;;7.63;5.73;;;;;;;;;;5048595;28;20406;-85
2022/06/03 15:50:30;;;;;;;9.07;6.33;;;;;;;;;;5048549;28;20440;-85
2022/06/03 15:52:56;;;;;;;5.10;4.50;;;;;;;;;;5049320;28;20445;-85
2022/06/03 15:55:31;;;;;;;7.93;4.13;;;;;;;;;;5048590;28;20422;-85
2022/06/03 15:58:02;;;;;;;5.93;3.40;;;;;;;;;;5048998;28;20409;-85